createdAt,value
2019-01-11T00:01:08.780Z,0.40
2019-01-11T00:03:37.352Z,0.40
2019-01-11T00:06:05.941Z,0.40
2019-01-11T00:08:34.503Z,0.40
2019-01-11T00:11:03.082Z,0.40
2019-01-11T00:13:31.658Z,0.40
2019-01-11T00:16:00.251Z,0.40
2019-01-11T00:18:28.820Z,0.40
2019-01-11T00:20:57.408Z,0.40
2019-01-11T00:23:26.058Z,0.40
2019-01-11T00:25:54.642Z,0.40
2019-01-11T00:28:23.207Z,0.40
2019-01-11T00:30:51.791Z,0.40
2019-01-11T00:33:20.360Z,0.40
2019-01-11T00:35:48.950Z,0.40
2019-01-11T00:38:17.509Z,0.40
2019-01-11T00:40:46.096Z,0.50
2019-01-11T00:43:15.119Z,0.40
2019-01-11T00:45:44.017Z,0.50
2019-01-11T00:48:12.579Z,0.50
2019-01-11T00:50:41.171Z,0.50
2019-01-11T00:53:09.799Z,0.50
2019-01-11T00:55:38.386Z,0.40
2019-01-11T00:58:06.955Z,0.50
2019-01-11T01:00:35.619Z,0.50
2019-01-11T01:03:04.438Z,0.40
2019-01-11T01:05:33.029Z,0.50
2019-01-11T01:08:01.734Z,0.40
2019-01-11T01:10:30.446Z,0.50
2019-01-11T01:12:59.011Z,0.50
2019-01-11T01:15:27.596Z,0.50
2019-01-11T01:17:56.159Z,0.50
2019-01-11T01:20:24.757Z,0.50
2019-01-11T01:22:53.320Z,0.50
2019-01-11T01:25:21.903Z,0.50
2019-01-11T01:27:50.476Z,0.50
2019-01-11T01:30:19.966Z,0.50
2019-01-11T01:32:48.592Z,0.50
2019-01-11T01:35:17.192Z,0.50
2019-01-11T01:37:45.823Z,0.50
2019-01-11T01:40:16.136Z,0.40
2019-01-11T01:42:44.733Z,0.40
2019-01-11T01:45:16.233Z,0.40
2019-01-11T01:47:45.035Z,0.50
2019-01-11T01:50:14.151Z,0.40
2019-01-11T01:52:42.810Z,0.40
2019-01-11T01:55:13.818Z,0.40
2019-01-11T01:57:42.399Z,0.40
2019-01-11T02:00:14.170Z,0.50
2019-01-11T02:02:42.750Z,0.50
2019-01-11T02:05:11.660Z,0.50
2019-01-11T02:07:40.321Z,0.50
2019-01-11T02:10:11.636Z,0.50
2019-01-11T02:12:40.296Z,0.50
2019-01-11T02:15:10.502Z,0.50
2019-01-11T02:17:39.227Z,0.50
2019-01-11T02:20:13.559Z,0.50
2019-01-11T02:22:42.224Z,0.50
2019-01-11T02:25:11.059Z,0.50
2019-01-11T02:27:39.653Z,0.50
2019-01-11T02:30:11.293Z,0.50
2019-01-11T02:32:39.880Z,0.50
2019-01-11T02:35:08.583Z,0.50
2019-01-11T02:37:37.181Z,0.50
2019-01-11T02:40:08.487Z,0.50
2019-01-11T02:42:37.080Z,0.50
2019-01-11T02:45:11.260Z,0.50
2019-01-11T02:47:39.860Z,0.50
2019-01-11T02:50:10.270Z,0.50
2019-01-11T02:52:38.855Z,0.50
2019-01-11T02:55:08.965Z,0.50
2019-01-11T02:57:37.546Z,0.50
2019-01-11T03:00:09.359Z,0.50
2019-01-11T03:02:38.021Z,0.50
2019-01-11T03:05:07.518Z,0.50
2019-01-11T03:07:36.116Z,0.50
2019-01-11T03:10:07.501Z,0.40
2019-01-11T03:12:36.084Z,0.40
2019-01-11T03:15:06.597Z,0.50
2019-01-11T03:17:35.179Z,0.50
2019-01-11T03:20:05.289Z,0.40
2019-01-11T03:22:33.875Z,0.40
2019-01-11T03:25:02.454Z,0.40
2019-01-11T03:27:31.027Z,0.40
2019-01-11T03:29:59.601Z,0.40
2019-01-11T03:32:28.185Z,0.40
2019-01-11T03:35:10.711Z,0.40
2019-01-11T03:37:39.304Z,0.40
2019-01-11T03:40:10.948Z,0.40
2019-01-11T03:42:39.549Z,0.40
2019-01-11T03:45:10.955Z,0.40
2019-01-11T03:47:39.543Z,0.40
2019-01-11T03:50:10.915Z,0.40
2019-01-11T03:52:39.510Z,0.50
2019-01-11T03:55:10.616Z,0.40
2019-01-11T03:57:39.206Z,0.40
2019-01-11T04:00:11.083Z,0.50
2019-01-11T04:02:39.666Z,0.40
2019-01-11T04:05:09.781Z,0.40
2019-01-11T04:07:38.378Z,0.40
2019-01-11T04:10:18.455Z,0.40
2019-01-11T04:12:47.038Z,0.40
2019-01-11T04:15:18.052Z,0.40
2019-01-11T04:17:48.425Z,0.40
2019-01-11T04:20:18.830Z,0.40
2019-01-11T04:22:49.068Z,0.40
2019-01-11T04:25:19.272Z,0.40
2019-01-11T04:27:47.928Z,0.40
2019-01-11T04:30:17.136Z,0.40
2019-01-11T04:32:45.801Z,0.40
2019-01-11T04:35:14.510Z,0.40
2019-01-11T04:37:43.093Z,0.40
2019-01-11T04:40:13.120Z,0.40
2019-01-11T04:42:41.776Z,0.30
2019-01-11T04:45:10.787Z,0.30
2019-01-11T04:47:39.359Z,0.30
2019-01-11T04:50:10.967Z,0.30
2019-01-11T04:52:39.572Z,0.30
2019-01-11T04:55:08.565Z,0.30
2019-01-11T04:57:37.148Z,0.30
2019-01-11T05:00:11.650Z,0.30
2019-01-11T05:02:40.226Z,0.30
2019-01-11T05:05:08.793Z,0.30
2019-01-11T05:07:37.372Z,0.30
2019-01-11T05:10:09.008Z,0.30
2019-01-11T05:12:37.600Z,0.30
2019-01-11T05:15:07.291Z,0.30
2019-01-11T05:17:35.880Z,0.30
2019-01-11T05:20:07.648Z,0.30
2019-01-11T05:22:36.244Z,0.30
2019-01-11T05:25:05.941Z,0.30
2019-01-11T05:27:35.679Z,0.30
2019-01-11T05:30:07.454Z,0.30
2019-01-11T05:32:36.030Z,0.30
2019-01-11T05:35:06.225Z,0.30
2019-01-11T05:37:34.813Z,0.20
2019-01-11T05:40:05.612Z,0.30
2019-01-11T05:42:34.196Z,0.30
2019-01-11T05:45:02.756Z,0.30
2019-01-11T05:47:31.339Z,0.30
2019-01-11T05:49:59.908Z,0.30
2019-01-11T05:52:28.493Z,0.30
2019-01-11T05:54:57.055Z,0.30
2019-01-11T05:57:25.635Z,0.30
2019-01-11T05:59:54.869Z,0.30
2019-01-11T06:02:23.454Z,0.30
2019-01-11T06:04:52.019Z,0.30
2019-01-11T06:07:21.369Z,0.30
2019-01-11T06:09:49.996Z,0.40
2019-01-11T06:12:18.696Z,0.40
2019-01-11T06:14:47.281Z,0.40
2019-01-11T06:17:15.916Z,0.40
2019-01-11T06:19:44.568Z,0.40
2019-01-11T06:22:13.132Z,0.40
2019-01-11T06:24:41.716Z,0.40
2019-01-11T06:27:10.347Z,0.40
2019-01-11T06:29:39.109Z,0.40
2019-01-11T06:32:07.740Z,0.50
2019-01-11T06:34:37.158Z,0.50
2019-01-11T06:37:05.711Z,0.50
2019-01-11T06:39:34.295Z,0.50
2019-01-11T06:42:04.499Z,0.50
2019-01-11T06:44:38.765Z,0.50
2019-01-11T06:47:03.300Z,0.50
2019-01-11T06:49:31.888Z,0.50
2019-01-11T06:52:00.448Z,0.50
2019-01-11T06:54:29.041Z,0.50
2019-01-11T06:56:57.589Z,0.60
2019-01-11T06:59:26.173Z,0.60
2019-01-11T07:01:54.735Z,0.60
2019-01-11T07:04:23.323Z,0.60
2019-01-11T07:06:51.883Z,0.70
2019-01-11T07:09:20.467Z,0.70
2019-01-11T07:11:49.031Z,0.70
2019-01-11T07:14:17.620Z,0.70
2019-01-11T07:16:46.179Z,0.70
2019-01-11T07:19:14.771Z,0.70
2019-01-11T07:21:43.507Z,0.70
2019-01-11T07:24:12.169Z,0.70
2019-01-11T07:26:40.724Z,0.70
2019-01-11T07:29:09.312Z,0.70
2019-01-11T07:31:37.872Z,0.80
2019-01-11T07:34:06.532Z,0.80
2019-01-11T07:36:35.355Z,0.80
2019-01-11T07:39:08.626Z,0.80
2019-01-11T07:41:37.195Z,0.80
2019-01-11T07:44:05.782Z,0.80
2019-01-11T07:46:34.347Z,0.90
2019-01-11T07:49:02.932Z,0.90
2019-01-11T07:51:31.500Z,0.90
2019-01-11T07:54:00.091Z,0.90
2019-01-11T07:56:28.651Z,0.90
2019-01-11T07:58:57.245Z,0.90
2019-01-11T08:01:26.781Z,0.90
2019-01-11T08:03:55.439Z,1.00
2019-01-11T08:06:24.009Z,1.00
2019-01-11T08:08:53.800Z,1.00
2019-01-11T08:11:22.473Z,1.00
2019-01-11T08:13:51.062Z,1.00
2019-01-11T08:16:19.632Z,1.10
2019-01-11T08:18:48.224Z,1.00
2019-01-11T08:21:16.791Z,1.10
2019-01-11T08:23:45.386Z,1.10
2019-01-11T08:26:13.948Z,1.10
2019-01-11T08:28:42.541Z,1.10
2019-01-11T08:31:11.112Z,1.10
2019-01-11T08:33:39.695Z,1.20
2019-01-11T08:36:08.333Z,1.20
2019-01-11T08:38:36.916Z,1.20
2019-01-11T08:41:05.484Z,1.20
2019-01-11T08:43:34.080Z,1.20
2019-01-11T08:46:02.643Z,1.20
2019-01-11T08:48:31.208Z,1.20
2019-01-11T08:51:02.836Z,1.30
2019-01-11T08:53:30.020Z,1.30
2019-01-11T08:55:58.607Z,1.30
2019-01-11T08:58:27.177Z,1.30
2019-01-11T09:00:55.764Z,1.30
2019-01-11T09:03:24.430Z,1.30
2019-01-11T09:05:53.065Z,1.30
2019-01-11T09:08:21.632Z,1.40
2019-01-11T09:10:50.291Z,1.40
2019-01-11T09:13:18.865Z,1.40
2019-01-11T09:15:47.455Z,1.40
2019-01-11T09:18:16.395Z,1.40
2019-01-11T09:20:44.980Z,1.40
2019-01-11T09:23:13.911Z,1.50
2019-01-11T09:25:42.540Z,1.40
2019-01-11T09:28:11.076Z,1.50
2019-01-11T09:30:39.664Z,1.50
2019-01-11T09:33:08.312Z,1.50
2019-01-11T09:35:36.900Z,1.50
2019-01-11T09:38:05.483Z,1.60
2019-01-11T09:40:34.046Z,1.50
2019-01-11T09:43:02.609Z,1.60
2019-01-11T09:45:31.190Z,1.60
2019-01-11T09:47:59.826Z,1.60
2019-01-11T09:50:28.428Z,1.70
2019-01-11T09:52:56.986Z,1.70
2019-01-11T09:55:25.579Z,1.70
2019-01-11T09:57:54.135Z,1.70
2019-01-11T10:00:26.795Z,1.80
2019-01-11T10:02:57.183Z,1.80
2019-01-11T10:05:25.779Z,1.80
2019-01-11T10:07:54.343Z,1.80
2019-01-11T10:10:22.939Z,1.90
2019-01-11T10:12:51.503Z,1.90
2019-01-11T10:15:20.167Z,1.90
2019-01-11T10:17:50.304Z,1.90
2019-01-11T10:20:18.965Z,2.00
2019-01-11T10:22:47.591Z,2.00
2019-01-11T10:25:16.174Z,2.00
2019-01-11T10:27:44.751Z,2.10
2019-01-11T10:30:16.143Z,2.10
2019-01-11T10:32:44.979Z,2.10
2019-01-11T10:35:13.623Z,2.20
2019-01-11T10:37:42.198Z,2.30
2019-01-11T10:40:13.519Z,2.30
2019-01-11T10:42:42.164Z,2.40
2019-01-11T10:45:14.092Z,2.40
2019-01-11T10:47:42.723Z,2.40
2019-01-11T10:50:14.274Z,2.50
2019-01-11T10:52:43.104Z,2.50
2019-01-11T10:55:13.826Z,2.60
2019-01-11T10:57:42.609Z,2.60
2019-01-11T11:00:22.679Z,2.60
2019-01-11T11:02:52.091Z,2.70
2019-01-11T11:05:21.116Z,2.70
2019-01-11T11:07:49.756Z,2.70
2019-01-11T11:10:18.412Z,2.80
2019-01-11T11:12:48.266Z,2.80
2019-01-11T11:15:17.888Z,2.80
2019-01-11T11:17:46.895Z,2.90
2019-01-11T11:20:17.327Z,2.90
2019-01-11T11:22:45.899Z,2.90
2019-01-11T11:25:17.219Z,2.90
2019-01-11T11:27:45.852Z,2.90
2019-01-11T11:30:16.787Z,2.90
2019-01-11T11:32:46.993Z,3.00
2019-01-11T11:35:15.655Z,3.00
2019-01-11T11:37:44.264Z,3.00
2019-01-11T11:40:13.060Z,3.00
2019-01-11T11:42:41.625Z,3.10
2019-01-11T11:45:10.354Z,3.10
2019-01-11T11:47:38.924Z,3.10
2019-01-11T11:50:10.975Z,3.10
2019-01-11T11:52:39.535Z,3.20
2019-01-11T11:55:09.459Z,3.20
2019-01-11T11:57:38.031Z,3.20
2019-01-11T12:00:18.547Z,3.20
2019-01-11T12:02:47.239Z,3.30
2019-01-11T12:05:15.971Z,3.30
2019-01-11T12:07:44.532Z,3.30
2019-01-11T12:10:14.954Z,3.30
2019-01-11T12:12:43.890Z,3.40
2019-01-11T12:15:14.004Z,3.40
2019-01-11T12:17:42.735Z,3.40
2019-01-11T12:20:14.399Z,3.40
2019-01-11T12:22:42.964Z,3.40
2019-01-11T12:25:11.604Z,3.50
2019-01-11T12:27:40.968Z,3.50
2019-01-11T12:30:15.211Z,3.50
2019-01-11T12:32:43.803Z,3.50
2019-01-11T12:35:12.358Z,3.50
2019-01-11T12:37:40.942Z,3.60
2019-01-11T12:40:14.648Z,3.60
2019-01-11T12:42:43.307Z,3.60
2019-01-11T12:45:14.212Z,3.60
2019-01-11T12:47:42.875Z,3.60
2019-01-11T12:50:17.492Z,3.60
2019-01-11T12:52:46.083Z,3.70
2019-01-11T12:55:14.716Z,3.70
2019-01-11T12:57:43.301Z,3.70
2019-01-11T13:00:17.099Z,3.70
2019-01-11T13:02:45.756Z,3.80
2019-01-11T13:05:17.258Z,3.80
2019-01-11T13:07:46.031Z,3.80
2019-01-11T13:10:16.815Z,3.80
2019-01-11T13:12:45.395Z,3.80
2019-01-11T13:15:16.515Z,3.80
2019-01-11T13:17:45.146Z,3.90
2019-01-11T13:20:15.846Z,3.90
2019-01-11T13:22:44.620Z,3.90
2019-01-11T13:25:13.339Z,3.90
2019-01-11T13:27:41.986Z,3.90
2019-01-11T13:30:13.283Z,3.90
2019-01-11T13:32:42.010Z,4.00
2019-01-11T13:35:11.095Z,4.00
2019-01-11T13:37:39.679Z,4.00
2019-01-11T13:40:11.443Z,4.00
2019-01-11T13:42:40.032Z,4.10
2019-01-11T13:45:09.302Z,4.10
2019-01-11T13:47:37.887Z,4.10
2019-01-11T13:50:09.520Z,4.10
2019-01-11T13:52:38.098Z,4.10
2019-01-11T13:55:06.722Z,4.10
2019-01-11T13:57:35.301Z,4.20
2019-01-11T14:00:05.945Z,4.20
2019-01-11T14:02:34.532Z,4.20
2019-01-11T14:05:03.360Z,4.20
2019-01-11T14:07:31.944Z,4.20
2019-01-11T14:10:00.506Z,4.20
2019-01-11T14:12:29.090Z,4.20
2019-01-11T14:14:57.655Z,4.30
2019-01-11T14:17:26.244Z,4.30
2019-01-11T14:19:54.806Z,4.30
2019-01-11T14:22:23.390Z,4.30
2019-01-11T14:24:51.947Z,4.30
2019-01-11T14:27:20.533Z,4.30
2019-01-11T14:29:49.091Z,4.40
2019-01-11T14:32:17.672Z,4.40
2019-01-11T14:34:46.239Z,4.40
2019-01-11T14:37:14.824Z,4.40
2019-01-11T14:39:43.382Z,4.40
2019-01-11T14:42:11.964Z,4.40
2019-01-11T14:44:40.527Z,4.40
2019-01-11T14:47:09.215Z,4.50
2019-01-11T14:49:37.780Z,4.40
2019-01-11T14:52:06.527Z,4.50
2019-01-11T14:54:35.096Z,4.50
2019-01-11T14:57:03.686Z,4.50
2019-01-11T14:59:32.244Z,4.50
2019-01-11T15:02:00.823Z,4.50
2019-01-11T15:04:29.384Z,4.50
2019-01-11T15:06:57.977Z,4.50
2019-01-11T15:09:26.540Z,4.50
2019-01-11T15:11:55.119Z,4.50
2019-01-11T15:14:23.679Z,4.50
2019-01-11T15:16:52.268Z,4.50
2019-01-11T15:19:20.832Z,4.50
2019-01-11T15:21:49.424Z,4.50
2019-01-11T15:24:17.983Z,4.50
2019-01-11T15:26:46.564Z,4.50
2019-01-11T15:29:15.128Z,4.50
2019-01-11T15:31:43.706Z,4.50
2019-01-11T15:34:12.276Z,4.50
2019-01-11T15:36:40.831Z,4.50
2019-01-11T15:39:09.775Z,4.50
2019-01-11T15:41:38.335Z,4.50
2019-01-11T15:44:06.993Z,4.50
2019-01-11T15:46:35.548Z,4.50
2019-01-11T15:49:04.204Z,4.50
2019-01-11T15:51:32.760Z,4.50
2019-01-11T15:54:01.342Z,4.50
2019-01-11T15:56:29.904Z,4.50
2019-01-11T15:58:58.488Z,4.50
2019-01-11T16:01:27.388Z,4.50
2019-01-11T16:03:55.971Z,4.50
2019-01-11T16:06:29.113Z,4.50
2019-01-11T16:09:15.966Z,4.50
2019-01-11T16:11:47.605Z,4.50
2019-01-11T16:14:21.855Z,4.60
2019-01-11T16:16:50.648Z,4.60
2019-01-11T16:19:19.227Z,4.60
2019-01-11T16:21:47.792Z,4.60
2019-01-11T16:24:16.377Z,4.60
2019-01-11T16:26:44.936Z,4.70
2019-01-11T16:29:13.520Z,4.70
2019-01-11T16:31:42.077Z,4.70
2019-01-11T16:34:10.661Z,4.80
2019-01-11T16:36:39.219Z,4.80
2019-01-11T16:39:08.844Z,4.90
2019-01-11T16:41:37.398Z,5.00
2019-01-11T16:44:06.055Z,5.00
2019-01-11T16:46:34.619Z,5.00
2019-01-11T16:49:03.193Z,5.00
2019-01-11T16:51:31.752Z,5.10
2019-01-11T16:54:00.340Z,5.10
2019-01-11T16:56:28.907Z,5.10
2019-01-11T16:58:57.493Z,5.10
2019-01-11T17:01:26.057Z,5.10
2019-01-11T17:03:54.643Z,5.10
2019-01-11T17:06:23.215Z,5.20
2019-01-11T17:08:51.802Z,5.20
2019-01-11T17:11:20.348Z,5.20
2019-01-11T17:13:48.931Z,5.20
2019-01-11T17:16:17.486Z,5.30
2019-01-11T17:18:46.071Z,5.30
2019-01-11T17:21:14.622Z,5.30
2019-01-11T17:23:43.202Z,5.30
2019-01-11T17:26:11.765Z,5.30
2019-01-11T17:28:40.343Z,5.40
2019-01-11T17:31:08.899Z,5.40
2019-01-11T17:33:37.475Z,5.40
2019-01-11T17:36:06.104Z,5.40
2019-01-11T17:38:34.706Z,5.30
2019-01-11T17:41:03.336Z,5.30
2019-01-11T17:43:31.921Z,5.40
2019-01-11T17:46:00.489Z,5.40
2019-01-11T17:48:29.066Z,5.40
2019-01-11T17:50:57.630Z,5.40
2019-01-11T17:53:26.212Z,5.40
2019-01-11T17:55:55.038Z,5.30
2019-01-11T17:58:23.620Z,5.40
2019-01-11T18:00:52.175Z,5.40
2019-01-11T18:03:20.759Z,5.40
2019-01-11T18:05:49.320Z,5.40
2019-01-11T18:08:17.884Z,5.40
2019-01-11T18:10:46.463Z,5.40
2019-01-11T18:13:15.873Z,5.40
2019-01-11T18:15:44.523Z,5.40
2019-01-11T18:18:13.083Z,5.40
2019-01-11T18:20:41.676Z,5.40
2019-01-11T18:23:10.430Z,5.40
2019-01-11T18:25:39.028Z,5.40
2019-01-11T18:28:07.592Z,5.40
2019-01-11T18:30:36.175Z,5.50
2019-01-11T18:33:05.216Z,5.50
2019-01-11T18:35:33.803Z,5.50
2019-01-11T18:38:02.363Z,5.40
2019-01-11T18:40:30.943Z,5.50
2019-01-11T18:42:59.507Z,5.40
2019-01-11T18:45:28.699Z,5.50
2019-01-11T18:47:57.659Z,5.50
2019-01-11T18:50:26.235Z,5.40
2019-01-11T18:52:54.800Z,5.40
2019-01-11T18:55:23.389Z,5.50
2019-01-11T18:57:51.956Z,5.40
2019-01-11T19:00:24.840Z,5.40
2019-01-11T19:02:53.416Z,5.40
2019-01-11T19:05:21.992Z,5.40
2019-01-11T19:07:50.653Z,5.40
2019-01-11T19:10:20.857Z,5.40
2019-01-11T19:12:49.503Z,5.40
2019-01-11T19:15:23.488Z,5.40
2019-01-11T19:17:52.047Z,5.40
2019-01-11T19:20:22.980Z,5.40
2019-01-11T19:22:51.781Z,5.40
2019-01-11T19:25:20.431Z,5.40
2019-01-11T19:27:49.064Z,5.40
2019-01-11T19:30:25.983Z,5.40
2019-01-11T19:32:54.616Z,5.40
2019-01-11T19:35:23.274Z,5.40
2019-01-11T19:37:51.836Z,5.40
2019-01-11T19:40:20.423Z,5.40
2019-01-11T19:42:49.056Z,5.40
2019-01-11T19:45:18.199Z,5.40
2019-01-11T19:47:46.831Z,5.40
2019-01-11T19:50:20.807Z,5.40
2019-01-11T19:52:50.347Z,5.40
2019-01-11T19:55:19.585Z,5.40
2019-01-11T19:57:48.211Z,5.40
2019-01-11T20:00:22.100Z,5.40
2019-01-11T20:02:51.755Z,5.40
2019-01-11T20:05:20.663Z,5.40
2019-01-11T20:07:49.436Z,5.40
2019-01-11T20:10:23.920Z,5.40
2019-01-11T20:12:52.484Z,5.40
2019-01-11T20:15:21.200Z,5.40
2019-01-11T20:17:49.785Z,5.40
2019-01-11T20:20:18.339Z,5.40
2019-01-11T20:22:46.972Z,5.40
2019-01-11T20:25:20.804Z,5.40
2019-01-11T20:27:49.444Z,5.40
2019-01-11T20:30:23.388Z,5.40
2019-01-11T20:32:52.130Z,5.40
2019-01-11T20:35:20.781Z,5.40
2019-01-11T20:37:49.484Z,5.40
2019-01-11T20:40:18.607Z,5.40
2019-01-11T20:42:47.402Z,5.30
2019-01-11T20:45:18.539Z,5.30
2019-01-11T20:47:47.172Z,5.30
2019-01-11T20:50:17.804Z,5.30
2019-01-11T20:52:46.511Z,5.40
2019-01-11T20:55:15.344Z,5.40
2019-01-11T20:57:44.352Z,5.40
2019-01-11T21:00:16.412Z,5.40
2019-01-11T21:02:44.987Z,5.40
2019-01-11T21:05:13.975Z,5.40
2019-01-11T21:07:42.558Z,5.40
2019-01-11T21:10:13.565Z,5.40
2019-01-11T21:12:42.147Z,5.40
2019-01-11T21:15:14.115Z,5.40
2019-01-11T21:17:42.767Z,5.30
2019-01-11T21:20:14.081Z,5.30
2019-01-11T21:22:42.837Z,5.30
2019-01-11T21:25:13.648Z,5.40
2019-01-11T21:27:42.564Z,5.40
2019-01-11T21:30:14.212Z,5.30
2019-01-11T21:32:42.801Z,5.30
2019-01-11T21:35:11.772Z,5.30
2019-01-11T21:37:40.423Z,5.30
2019-01-11T21:40:12.234Z,5.30
2019-01-11T21:42:40.888Z,5.30
2019-01-11T21:45:10.961Z,5.30
2019-01-11T21:47:39.588Z,5.30
2019-01-11T21:50:11.889Z,5.30
2019-01-11T21:52:40.475Z,5.30
2019-01-11T21:55:09.876Z,5.30
2019-01-11T21:57:38.461Z,5.30
2019-01-11T22:00:16.168Z,5.30
2019-01-11T22:02:45.072Z,5.30
2019-01-11T22:05:13.872Z,5.30
2019-01-11T22:07:42.560Z,5.20
2019-01-11T22:10:14.161Z,5.20
2019-01-11T22:12:42.752Z,5.20
2019-01-11T22:15:14.220Z,5.30
2019-01-11T22:17:42.883Z,5.20
2019-01-11T22:20:16.652Z,5.20
2019-01-11T22:22:45.308Z,5.20
2019-01-11T22:25:15.407Z,5.20
2019-01-11T22:27:44.005Z,5.20
2019-01-11T22:30:15.211Z,5.20
2019-01-11T22:32:43.800Z,5.20
2019-01-11T22:35:12.375Z,5.20
2019-01-11T22:37:40.956Z,5.30
2019-01-11T22:40:15.152Z,5.20
2019-01-11T22:42:43.815Z,5.20
2019-01-11T22:45:14.140Z,5.20
2019-01-11T22:47:42.724Z,5.20
2019-01-11T22:50:13.891Z,5.20
2019-01-11T22:52:42.496Z,5.20
2019-01-11T22:55:13.207Z,5.20
2019-01-11T22:57:41.843Z,5.20
2019-01-11T23:00:22.418Z,5.20
2019-01-11T23:02:52.596Z,5.20
2019-01-11T23:05:21.156Z,5.20
2019-01-11T23:07:49.787Z,5.20
2019-01-11T23:10:24.141Z,5.20
2019-01-11T23:12:55.839Z,5.20
2019-01-11T23:15:24.575Z,5.20
2019-01-11T23:17:53.504Z,5.20
2019-01-11T23:20:22.087Z,5.20
2019-01-11T23:22:50.705Z,5.20
2019-01-11T23:25:19.292Z,5.10
2019-01-11T23:27:47.856Z,5.20
2019-01-11T23:30:17.884Z,5.20
2019-01-11T23:32:46.444Z,5.20
2019-01-11T23:35:16.256Z,5.10
2019-01-11T23:37:44.815Z,5.10
2019-01-11T23:40:15.239Z,5.10
2019-01-11T23:42:43.798Z,5.10
2019-01-11T23:45:12.747Z,5.10
2019-01-11T23:47:41.385Z,5.10
2019-01-11T23:50:12.714Z,5.10
2019-01-11T23:52:41.270Z,5.10
2019-01-11T23:55:11.305Z,5.10
2019-01-11T23:57:39.872Z,5.10
